createdAt,value
2018-07-03T00:00:09.680Z,47.50
2018-07-03T00:02:38.801Z,47.10
2018-07-03T00:05:07.666Z,46.60
2018-07-03T00:07:36.818Z,46.60
2018-07-03T00:10:05.740Z,47.70
2018-07-03T00:12:34.522Z,48.60
2018-07-03T00:15:03.416Z,48.60
2018-07-03T00:17:32.149Z,48.60
2018-07-03T00:20:00.893Z,48.50
2018-07-03T00:22:29.949Z,48.50
2018-07-03T00:24:58.675Z,48.50
2018-07-03T00:27:27.350Z,48.70
2018-07-03T00:29:56.238Z,48.80
2018-07-03T00:32:24.971Z,49.00
2018-07-03T00:34:53.699Z,49.00
2018-07-03T00:37:22.432Z,49.10
2018-07-03T00:39:51.258Z,48.40
2018-07-03T00:42:19.971Z,48.30
2018-07-03T00:44:48.681Z,47.80
2018-07-03T00:47:17.627Z,47.10
2018-07-03T00:49:46.408Z,46.60
2018-07-03T00:52:15.128Z,47.00
2018-07-03T00:54:43.840Z,47.20
2018-07-03T00:57:12.552Z,46.30
2018-07-03T00:59:52.022Z,46.20
2018-07-03T01:02:20.809Z,46.10
2018-07-03T01:04:49.576Z,46.50
2018-07-03T01:09:46.877Z,47.60
2018-07-03T01:12:15.615Z,47.90
2018-07-03T01:14:44.434Z,48.20
2018-07-03T01:17:13.154Z,48.00
2018-07-03T01:19:41.924Z,49.10
2018-07-03T01:22:10.673Z,49.00
2018-07-03T01:24:39.459Z,49.30
2018-07-03T01:29:36.700Z,49.60
2018-07-03T01:32:05.555Z,49.70
2018-07-03T01:37:02.694Z,49.70
2018-07-03T01:39:31.493Z,49.40
2018-07-03T01:42:00.201Z,49.30
2018-07-03T01:44:28.930Z,49.20
2018-07-03T01:46:57.679Z,48.80
2018-07-03T01:49:26.839Z,49.70
2018-07-03T01:51:55.897Z,49.80
2018-07-03T01:54:24.586Z,48.70
2018-07-03T01:56:53.676Z,50.20
2018-07-03T01:59:22.388Z,50.40
2018-07-03T02:01:51.122Z,50.40
2018-07-03T02:04:19.971Z,51.00
2018-07-03T02:06:48.771Z,51.20
2018-07-03T02:09:17.558Z,51.00
2018-07-03T02:11:46.340Z,51.70
2018-07-03T02:14:15.117Z,52.20
2018-07-03T02:16:43.929Z,53.40
2018-07-03T02:19:12.643Z,53.80
2018-07-03T02:21:41.390Z,53.60
2018-07-03T02:24:10.110Z,52.90
2018-07-03T02:26:38.970Z,52.50
2018-07-03T02:29:07.717Z,51.60
2018-07-03T02:31:36.572Z,50.20
2018-07-03T02:34:05.343Z,48.80
2018-07-03T02:39:02.577Z,48.00
2018-07-03T02:41:31.397Z,48.40
2018-07-03T02:44:00.133Z,49.40
2018-07-03T02:46:28.861Z,49.20
2018-07-03T02:48:57.597Z,49.10
2018-07-03T02:51:26.401Z,49.30
2018-07-03T02:53:55.236Z,49.20
2018-07-03T02:56:23.956Z,48.40
2018-07-03T02:58:53.332Z,48.50
2018-07-03T03:01:22.064Z,48.10
2018-07-03T03:03:50.785Z,47.60
2018-07-03T03:06:19.541Z,47.70
2018-07-03T03:08:48.235Z,47.70
2018-07-03T03:11:17.211Z,47.30
2018-07-03T03:13:45.992Z,46.70
2018-07-03T03:16:15.158Z,46.40
2018-07-03T03:18:44.096Z,47.70
2018-07-03T03:21:12.911Z,47.90
2018-07-03T03:23:41.744Z,52.00
2018-07-03T03:26:10.450Z,51.70
2018-07-03T03:31:07.705Z,51.00
2018-07-03T03:33:36.465Z,50.20
2018-07-03T03:37:34.893Z,48.70
2018-07-03T03:40:03.753Z,48.00
2018-07-03T03:42:32.533Z,46.10
2018-07-03T03:45:01.263Z,44.10
2018-07-03T03:47:30.170Z,41.80
2018-07-03T03:49:58.909Z,41.90
2018-07-03T03:52:27.640Z,41.40
2018-07-03T03:54:57.528Z,41.70
2018-07-03T03:57:26.317Z,42.20
2018-07-03T03:59:56.198Z,42.50
2018-07-03T04:02:24.963Z,41.90
2018-07-03T04:04:53.695Z,41.80
2018-07-03T04:07:22.422Z,41.70
2018-07-03T04:09:51.165Z,41.90
2018-07-03T04:12:20.963Z,41.90
2018-07-03T04:14:49.660Z,40.40
2018-07-03T04:17:18.365Z,40.70
2018-07-03T04:19:47.073Z,40.10
2018-07-03T04:22:15.857Z,40.40
2018-07-03T04:24:44.530Z,38.80
2018-07-03T04:27:13.380Z,36.50
2018-07-03T04:29:42.109Z,35.50
2018-07-03T04:32:10.973Z,33.60
2018-07-03T04:34:39.698Z,33.30
2018-07-03T04:37:08.529Z,32.20
2018-07-03T04:39:37.381Z,31.00
2018-07-03T04:42:06.539Z,30.20
2018-07-03T04:44:35.280Z,29.00
2018-07-03T04:47:04.147Z,28.50
2018-07-03T04:49:32.866Z,27.70
2018-07-03T04:52:01.599Z,27.90
2018-07-03T04:56:58.803Z,26.80
2018-07-03T04:59:27.551Z,26.70
2018-07-03T05:01:56.311Z,26.90
2018-07-03T05:04:25.062Z,26.30
2018-07-03T05:06:53.806Z,26.60
2018-07-03T05:09:22.523Z,26.50
2018-07-03T05:11:51.338Z,26.30
2018-07-03T05:14:20.149Z,25.90
2018-07-03T05:16:53.446Z,26.40
2018-07-03T05:19:22.230Z,26.80
2018-07-03T05:21:50.977Z,26.30
2018-07-03T05:24:19.714Z,26.40
2018-07-03T05:26:48.431Z,26.40
2018-07-03T05:29:17.141Z,25.80
2018-07-03T05:31:45.961Z,26.10
2018-07-03T05:34:14.727Z,26.60
2018-07-03T05:36:43.560Z,26.20
2018-07-03T05:39:13.244Z,26.40
2018-07-03T05:41:41.931Z,26.20
2018-07-03T05:44:10.705Z,26.90
2018-07-03T05:46:39.981Z,27.20
2018-07-03T05:49:08.722Z,28.00
2018-07-03T05:51:38.537Z,28.60
2018-07-03T05:54:07.128Z,29.30
2018-07-03T05:58:05.223Z,29.40
2018-07-03T06:00:33.990Z,30.00
2018-07-03T06:03:02.759Z,32.30
2018-07-03T06:05:31.698Z,33.10
2018-07-03T06:08:00.249Z,33.40
2018-07-03T06:10:29.195Z,35.30
2018-07-03T06:12:57.937Z,35.80
2018-07-03T06:15:26.717Z,35.90
2018-07-03T06:17:55.473Z,38.60
2018-07-03T06:20:24.222Z,40.00
2018-07-03T06:22:53.174Z,40.40
2018-07-03T06:25:21.985Z,40.30
2018-07-03T06:27:50.840Z,41.10
2018-07-03T06:30:19.689Z,41.00
2018-07-03T06:32:48.470Z,41.60
2018-07-03T06:35:17.322Z,41.90
2018-07-03T06:37:46.068Z,41.50
2018-07-03T06:40:14.982Z,42.30
2018-07-03T06:42:43.733Z,41.30
2018-07-03T06:45:12.540Z,42.60
2018-07-03T06:47:41.380Z,43.10
2018-07-03T06:50:10.144Z,43.10
2018-07-03T06:52:38.845Z,43.00
2018-07-03T06:55:07.806Z,44.30
2018-07-03T06:57:36.490Z,44.50
2018-07-03T07:00:06.009Z,44.30
2018-07-03T07:02:34.858Z,44.60
2018-07-03T07:05:03.691Z,43.70
2018-07-03T07:07:32.436Z,43.50
2018-07-03T07:10:01.248Z,42.70
2018-07-03T07:12:30.012Z,43.30
2018-07-03T07:17:27.294Z,43.60
2018-07-03T07:19:56.025Z,43.40
2018-07-03T07:22:24.794Z,42.70
2018-07-03T07:24:53.602Z,42.30
2018-07-03T07:27:22.311Z,41.60
2018-07-03T07:29:51.143Z,41.80
2018-07-03T07:32:19.849Z,41.60
2018-07-03T07:34:48.589Z,41.00
2018-07-03T07:37:17.376Z,41.90
2018-07-03T07:39:46.095Z,42.00
2018-07-03T07:42:14.820Z,41.70
2018-07-03T07:44:43.530Z,42.40
2018-07-03T07:47:12.354Z,43.10
2018-07-03T07:49:41.481Z,42.70
2018-07-03T07:52:10.305Z,43.60
2018-07-03T07:54:39.017Z,42.50
2018-07-03T07:57:07.784Z,42.20
2018-07-03T07:59:36.583Z,42.60
2018-07-03T08:02:05.678Z,42.20
2018-07-03T08:04:34.419Z,41.90
2018-07-03T08:07:03.151Z,42.20
2018-07-03T08:09:32.047Z,41.80
2018-07-03T08:12:00.789Z,41.90
2018-07-03T08:14:29.572Z,42.70
2018-07-03T08:16:58.283Z,42.80
2018-07-03T08:19:27.018Z,43.30
2018-07-03T08:21:55.774Z,43.20
2018-07-03T08:24:24.582Z,42.90
2018-07-03T08:26:53.342Z,43.00
2018-07-03T08:29:22.086Z,42.70
2018-07-03T08:31:50.863Z,42.50
2018-07-03T08:34:19.568Z,43.20
2018-07-03T08:36:48.413Z,43.70
2018-07-03T08:39:17.115Z,43.70
2018-07-03T08:41:45.888Z,44.00
2018-07-03T08:44:14.642Z,43.70
2018-07-03T08:46:43.398Z,44.40
2018-07-03T08:49:12.126Z,43.80
2018-07-03T08:51:55.757Z,44.10
2018-07-03T08:54:24.508Z,44.50
2018-07-03T08:56:53.248Z,44.00
2018-07-03T08:59:21.942Z,44.00
2018-07-03T09:01:50.668Z,44.00
2018-07-03T09:04:19.434Z,44.20
2018-07-03T09:06:48.184Z,43.20
2018-07-03T09:09:17.123Z,42.10
2018-07-03T09:11:45.892Z,41.60
2018-07-03T09:14:14.612Z,40.40
2018-07-03T09:16:43.502Z,40.10
2018-07-03T09:19:12.224Z,39.70
2018-07-03T09:21:41.180Z,39.80
2018-07-03T09:24:09.885Z,38.80
2018-07-03T09:26:38.651Z,38.80
2018-07-03T09:29:07.389Z,38.70
2018-07-03T09:31:36.166Z,38.70
2018-07-03T09:34:05.387Z,37.70
2018-07-03T09:36:34.152Z,38.00
2018-07-03T09:39:04.222Z,38.00
2018-07-03T09:41:33.036Z,38.10
2018-07-03T09:44:01.754Z,37.40
2018-07-03T09:46:30.595Z,37.10
2018-07-03T09:48:59.329Z,36.00
2018-07-03T09:51:28.102Z,35.70
2018-07-03T09:53:56.968Z,36.00
2018-07-03T09:56:25.715Z,35.10
2018-07-03T09:58:54.895Z,34.90
2018-07-03T10:01:23.620Z,34.10
2018-07-03T10:03:52.360Z,33.30
2018-07-03T10:06:21.189Z,34.10
2018-07-03T10:08:49.912Z,33.90
2018-07-03T10:11:18.661Z,33.20
2018-07-03T10:13:47.415Z,33.10
2018-07-03T10:18:44.552Z,33.20
2018-07-03T10:21:13.301Z,32.50
2018-07-03T10:23:42.232Z,33.20
2018-07-03T10:26:10.945Z,32.20
2018-07-03T10:28:39.647Z,32.40
2018-07-03T10:31:08.359Z,32.70
2018-07-03T10:33:37.116Z,32.30
2018-07-03T10:36:05.944Z,31.20
2018-07-03T10:38:34.764Z,32.40
2018-07-03T10:41:03.569Z,32.20
2018-07-03T10:43:32.291Z,33.40
2018-07-03T10:46:01.015Z,31.30
2018-07-03T10:48:29.929Z,32.10
2018-07-03T10:50:58.682Z,31.30
2018-07-03T10:53:27.381Z,31.70
2018-07-03T10:55:56.183Z,32.90
2018-07-03T10:58:24.931Z,31.50
2018-07-03T11:00:53.691Z,31.50
2018-07-03T11:05:51.010Z,33.30
2018-07-03T11:08:19.747Z,33.00
2018-07-03T11:10:48.524Z,31.10
2018-07-03T11:13:17.215Z,31.10
2018-07-03T11:15:45.920Z,33.60
2018-07-03T11:18:14.650Z,33.60
2018-07-03T11:20:43.334Z,33.20
2018-07-03T11:23:12.323Z,33.60
2018-07-03T11:25:41.421Z,33.20
2018-07-03T11:28:10.160Z,31.80
2018-07-03T11:30:39.212Z,31.70
2018-07-03T11:33:07.978Z,32.50
2018-07-03T11:35:36.876Z,31.80
2018-07-03T11:38:05.592Z,32.60
2018-07-03T11:40:34.331Z,34.40
2018-07-03T11:43:03.265Z,33.90
2018-07-03T11:45:32.055Z,33.30
2018-07-03T11:48:00.798Z,33.40
2018-07-03T11:50:29.537Z,34.60
2018-07-03T11:52:58.288Z,33.60
2018-07-03T11:55:27.021Z,33.50
2018-07-03T11:57:55.765Z,33.80
2018-07-03T12:00:24.771Z,31.70
2018-07-03T12:02:53.601Z,32.80
2018-07-03T12:05:22.304Z,32.80
2018-07-03T12:07:51.041Z,32.90
2018-07-03T12:10:19.795Z,33.70
2018-07-03T12:12:48.673Z,33.60
2018-07-03T12:15:17.408Z,34.50
2018-07-03T12:17:46.707Z,32.00
2018-07-03T12:20:15.454Z,32.00
2018-07-03T12:22:44.543Z,32.00
2018-07-03T12:25:13.331Z,31.60
2018-07-03T12:27:42.131Z,32.10
2018-07-03T12:30:12.376Z,32.20
2018-07-03T12:32:41.193Z,31.80
2018-07-03T12:35:10.088Z,31.70
2018-07-03T12:40:07.306Z,32.10
2018-07-03T12:42:36.125Z,32.10
2018-07-03T12:45:05.042Z,32.00
2018-07-03T12:47:33.806Z,32.20
2018-07-03T12:50:02.666Z,31.90
2018-07-03T12:52:31.464Z,32.10
2018-07-03T12:55:00.169Z,31.30
2018-07-03T12:57:28.998Z,31.70
2018-07-03T12:59:57.735Z,30.80
2018-07-03T13:02:26.517Z,30.80
2018-07-03T13:04:55.340Z,31.50
2018-07-03T13:07:24.122Z,31.50
2018-07-03T13:09:53.057Z,31.50
2018-07-03T13:12:21.785Z,30.50
2018-07-03T13:14:50.495Z,30.10
2018-07-03T13:17:19.273Z,29.90
2018-07-03T13:19:48.124Z,30.00
2018-07-03T13:22:17.008Z,29.90
2018-07-03T13:24:45.745Z,29.50
2018-07-03T13:27:14.492Z,29.40
2018-07-03T13:29:43.309Z,29.60
2018-07-03T13:32:12.205Z,29.90
2018-07-03T13:34:41.024Z,29.30
2018-07-03T13:37:09.878Z,29.30
2018-07-03T13:39:39.072Z,29.40
2018-07-03T13:42:07.899Z,29.70
2018-07-03T13:44:36.770Z,29.90
2018-07-03T13:47:05.614Z,29.10
2018-07-03T13:49:34.313Z,28.80
2018-07-03T13:52:03.021Z,29.20
2018-07-03T13:54:31.740Z,28.60
2018-07-03T13:57:00.476Z,28.40
2018-07-03T13:59:29.220Z,28.30
2018-07-03T14:01:57.976Z,28.50
2018-07-03T14:04:26.721Z,29.00
2018-07-03T14:06:55.461Z,29.50
2018-07-03T14:09:24.216Z,29.50
2018-07-03T14:11:53.110Z,30.10
2018-07-03T14:14:21.905Z,30.20
2018-07-03T14:16:50.688Z,29.70
2018-07-03T14:19:19.571Z,30.00
2018-07-03T14:21:48.435Z,30.00
2018-07-03T14:24:17.170Z,30.00
2018-07-03T14:26:45.870Z,29.80
2018-07-03T14:29:14.629Z,29.70
2018-07-03T14:31:43.327Z,29.60
2018-07-03T14:34:12.032Z,29.90
2018-07-03T14:36:40.842Z,29.80
2018-07-03T14:39:11.942Z,30.10
2018-07-03T14:41:40.762Z,30.30
2018-07-03T14:44:09.715Z,30.70
2018-07-03T14:46:38.465Z,30.60
2018-07-03T14:49:07.187Z,31.20
2018-07-03T14:51:35.981Z,30.60
2018-07-03T14:54:04.730Z,30.70
2018-07-03T14:56:33.552Z,30.70
2018-07-03T14:59:02.340Z,31.20
2018-07-03T15:01:31.100Z,31.10
2018-07-03T15:03:59.934Z,31.50
2018-07-03T15:06:28.710Z,31.10
2018-07-03T15:08:57.579Z,30.50
2018-07-03T15:11:26.434Z,30.50
2018-07-03T15:13:55.309Z,30.70
2018-07-03T15:16:24.087Z,30.00
2018-07-03T15:18:58.207Z,29.60
2018-07-03T15:21:26.985Z,29.40
2018-07-03T15:23:55.756Z,29.40
2018-07-03T15:26:24.504Z,29.50
2018-07-03T15:28:53.599Z,29.40
2018-07-03T15:31:22.297Z,29.10
2018-07-03T15:33:51.012Z,28.90
2018-07-03T15:36:19.767Z,28.50
2018-07-03T15:38:48.700Z,28.90
2018-07-03T15:41:17.445Z,29.40
2018-07-03T15:43:57.212Z,29.70
2018-07-03T15:46:26.250Z,29.10
2018-07-03T15:48:55.544Z,27.90
2018-07-03T15:51:24.291Z,27.60
2018-07-03T15:53:53.187Z,28.00
2018-07-03T15:56:22.003Z,28.30
2018-07-03T15:58:51.236Z,28.60
2018-07-03T16:04:03.308Z,30.00
2018-07-03T16:09:15.813Z,29.20
2018-07-03T16:11:44.787Z,28.90
2018-07-03T16:14:13.942Z,27.70
2018-07-03T16:16:43.057Z,27.80
2018-07-03T16:19:17.234Z,27.50
2018-07-03T16:21:46.049Z,27.50
2018-07-03T16:24:14.839Z,27.20
2018-07-03T16:26:44.733Z,27.30
2018-07-03T16:29:13.511Z,27.20
2018-07-03T16:31:42.281Z,26.80
2018-07-03T16:34:10.995Z,26.90
2018-07-03T16:36:40.635Z,26.80
2018-07-03T16:39:11.436Z,26.80
2018-07-03T16:41:40.199Z,26.80
2018-07-03T16:44:09.553Z,26.80
2018-07-03T16:46:38.298Z,26.80
2018-07-03T16:49:07.102Z,27.10
2018-07-03T16:51:35.952Z,26.90
2018-07-03T16:54:04.718Z,27.10
2018-07-03T16:56:33.706Z,27.60
2018-07-03T16:59:02.465Z,27.50
2018-07-03T17:01:31.245Z,27.60
2018-07-03T17:04:00.138Z,27.90
2018-07-03T17:06:28.854Z,27.40
2018-07-03T17:08:57.705Z,27.50
2018-07-03T17:11:26.527Z,27.50
2018-07-03T17:13:55.398Z,27.70
2018-07-03T17:16:24.078Z,27.50
2018-07-03T17:18:58.179Z,27.50
2018-07-03T17:21:26.990Z,27.60
2018-07-03T17:26:24.465Z,28.30
2018-07-03T17:28:53.350Z,27.60
2018-07-03T17:31:22.145Z,27.80
2018-07-03T17:33:50.914Z,27.50
2018-07-03T17:36:19.630Z,27.20
2018-07-03T17:38:48.420Z,26.80
2018-07-03T17:41:28.044Z,26.90
2018-07-03T17:44:08.861Z,26.50
2018-07-03T17:46:37.580Z,26.50
2018-07-03T17:49:06.646Z,26.30
2018-07-03T17:51:35.536Z,26.50
2018-07-03T17:54:04.372Z,26.40
2018-07-03T17:56:33.213Z,26.40
2018-07-03T17:59:01.977Z,26.50
2018-07-03T18:01:30.798Z,26.40
2018-07-03T18:03:59.645Z,26.50
2018-07-03T18:06:28.409Z,26.70
2018-07-03T18:08:57.199Z,26.90
2018-07-03T18:12:55.357Z,27.00
2018-07-03T18:15:24.160Z,27.30
2018-07-03T18:17:52.919Z,27.30
2018-07-03T18:21:51.130Z,27.70
2018-07-03T18:24:19.891Z,28.10
2018-07-03T18:26:48.682Z,28.20
2018-07-03T18:29:17.521Z,28.10
2018-07-03T18:31:46.270Z,28.50
2018-07-03T18:34:15.100Z,28.60
2018-07-03T18:36:43.910Z,29.00
2018-07-03T18:39:12.706Z,29.00
2018-07-03T18:41:41.497Z,29.30
2018-07-03T18:44:10.205Z,29.50
2018-07-03T18:46:39.337Z,29.90
2018-07-03T18:49:08.073Z,29.80
2018-07-03T18:51:36.815Z,29.90
2018-07-03T18:54:05.678Z,30.00
2018-07-03T18:56:34.411Z,30.40
2018-07-03T18:59:03.277Z,30.40
2018-07-03T19:01:32.019Z,30.40
2018-07-03T19:04:00.860Z,30.80
2018-07-03T19:06:29.629Z,31.00
2018-07-03T19:08:58.468Z,31.20
2018-07-03T19:11:27.241Z,31.40
2018-07-03T19:13:56.108Z,31.50
2018-07-03T19:16:24.862Z,31.30
2018-07-03T19:18:53.572Z,31.40
2018-07-03T19:21:22.395Z,31.40
2018-07-03T19:23:51.139Z,31.40
2018-07-03T19:26:19.912Z,31.60
2018-07-03T19:28:48.675Z,32.10
2018-07-03T19:31:17.455Z,32.60
2018-07-03T19:33:46.186Z,32.50
2018-07-03T19:36:15.036Z,32.30
2018-07-03T19:38:43.845Z,32.80
2018-07-03T19:41:15.613Z,33.30
2018-07-03T19:43:45.273Z,33.40
2018-07-03T19:46:14.019Z,33.80
2018-07-03T19:48:42.720Z,34.30
2018-07-03T19:51:11.494Z,34.40
2018-07-03T19:53:40.315Z,34.60
2018-07-03T19:56:09.065Z,34.90
2018-07-03T20:01:06.485Z,35.00
2018-07-03T20:03:35.266Z,35.30
2018-07-03T20:06:04.056Z,35.50
2018-07-03T20:08:32.785Z,35.80
2018-07-03T20:11:02.054Z,36.30
2018-07-03T20:13:30.859Z,36.40
2018-07-03T20:15:59.590Z,36.80
2018-07-03T20:18:28.530Z,37.20
2018-07-03T20:20:57.385Z,37.50
2018-07-03T20:23:26.214Z,37.80
2018-07-03T20:25:54.970Z,37.80
2018-07-03T20:28:23.694Z,38.30
2018-07-03T20:30:52.415Z,38.60
2018-07-03T20:33:21.169Z,38.90
2018-07-03T20:35:49.866Z,39.20
2018-07-03T20:38:18.654Z,39.50
2018-07-03T20:40:53.819Z,39.60
2018-07-03T20:43:22.892Z,39.80
2018-07-03T20:45:51.702Z,40.00
2018-07-03T20:48:20.387Z,40.20
2018-07-03T20:50:49.106Z,40.50
2018-07-03T20:53:17.854Z,40.50
2018-07-03T20:58:15.103Z,40.90
2018-07-03T21:00:44.351Z,41.00
2018-07-03T21:03:13.467Z,41.30
2018-07-03T21:05:42.261Z,41.50
2018-07-03T21:08:11.063Z,41.60
2018-07-03T21:10:39.860Z,41.80
2018-07-03T21:13:08.611Z,42.00
2018-07-03T21:15:37.568Z,42.50
2018-07-03T21:18:06.426Z,42.30
2018-07-03T21:20:35.280Z,42.50
2018-07-03T21:23:04.102Z,42.70
2018-07-03T21:25:32.876Z,42.90
2018-07-03T21:28:01.917Z,42.70
2018-07-03T21:30:30.674Z,42.90
2018-07-03T21:32:59.392Z,43.00
2018-07-03T21:35:28.108Z,43.10
2018-07-03T21:37:57.135Z,43.10
2018-07-03T21:40:25.838Z,43.10
2018-07-03T21:42:54.565Z,43.30
2018-07-03T21:48:15.943Z,43.70
2018-07-03T21:50:45.260Z,44.70
2018-07-03T21:53:14.096Z,45.40
2018-07-03T21:55:42.821Z,46.30
2018-07-03T21:58:11.641Z,45.60
2018-07-03T22:00:41.384Z,45.10
2018-07-03T22:09:55.682Z,48.50
2018-07-03T22:12:24.534Z,47.60
2018-07-03T22:14:53.281Z,47.10
2018-07-03T22:17:21.999Z,47.70
2018-07-03T22:19:50.745Z,49.40
2018-07-03T22:22:19.461Z,49.10
2018-07-03T22:24:48.188Z,48.30
2018-07-03T22:29:45.489Z,47.10
2018-07-03T22:32:14.219Z,46.90
2018-07-03T22:34:42.960Z,46.80
2018-07-03T22:37:11.686Z,46.90
2018-07-03T22:39:40.420Z,47.00
2018-07-03T22:42:09.188Z,46.70
2018-07-03T22:44:37.989Z,47.50
2018-07-03T22:47:06.738Z,48.00
2018-07-03T22:49:35.462Z,48.20
2018-07-03T22:52:04.209Z,48.00
2018-07-03T22:54:32.917Z,47.90
2018-07-03T22:57:01.652Z,47.90
2018-07-03T22:59:30.409Z,47.70
2018-07-03T23:01:59.139Z,48.00
2018-07-03T23:04:27.853Z,48.10
2018-07-03T23:06:56.629Z,48.50
2018-07-03T23:09:25.484Z,48.50
2018-07-03T23:11:54.222Z,48.60
2018-07-03T23:14:23.020Z,49.50
2018-07-03T23:16:51.758Z,49.80
2018-07-03T23:19:20.461Z,49.80
2018-07-03T23:23:18.609Z,49.90
2018-07-03T23:25:47.416Z,50.00
2018-07-03T23:28:16.169Z,50.40
2018-07-03T23:30:44.878Z,50.50
2018-07-03T23:33:13.707Z,51.20
2018-07-03T23:35:42.439Z,51.70
2018-07-03T23:38:11.175Z,51.60
2018-07-03T23:40:40.021Z,51.70
2018-07-03T23:43:08.817Z,51.90
2018-07-03T23:46:00.339Z,51.90
2018-07-03T23:48:39.923Z,52.10
2018-07-03T23:51:25.389Z,52.50
2018-07-03T23:54:11.123Z,52.50
2018-07-03T23:56:56.545Z,53.20
2018-07-03T23:59:42.281Z,54.00
